Terminal Aerodrome Forecast
Issued by NWS

Home | Current Version | Previous Version | Graphics & Text | Print | Product List | Glossary On
Versions: 1 2 3 4 5 6 7 8 9 10 11 12 13 14 15
198
FTUS43 KABR 130539
TAFPIR
TAF
KPIR 130539Z 1306/1406 27016G25KT P6SM BKN200
     FM130700 30028G38KT P6SM BKN200
     FM132200 33021G32KT P6SM BKN080
     FM140000 33010KT P6SM SCT060=

USA.gov is the U.S. government's official web portal to all federal, state and local government web resources and services.